Time;durP1;ratioP1;P1;durP2;ratioP2;P2;SDS_P1;SDS_P2;PMS_P1;PMS_P2;Temp;Humidity;BMP_temperature;BMP_pressure;BME280_temperature;BME280_humidity;BME280_pressure;Samples;Min_cycle;Max_cycle;Signal;HPM_P1;HPM_P2
2022/04/11 00:01:31;;;;;;;3.42;1.85;;;3.00;99.90;;;;;;4990792;28;20054;-80
2022/04/11 00:03:57;;;;;;;3.83;2.00;;;3.30;99.90;;;;;;4983490;28;20896;-81
2022/04/11 00:06:23;;;;;;;3.53;1.65;;;3.00;99.90;;;;;;4984212;28;20057;-80
2022/04/11 00:08:49;;;;;;;3.78;1.75;;;3.00;99.90;;;;;;4981468;28;20101;-80
2022/04/11 00:11:14;;;;;;;4.53;1.92;;;3.00;99.90;;;;;;4982214;28;20693;-81
2022/04/11 00:13:40;;;;;;;4.82;2.00;;;2.90;99.90;;;;;;4989784;28;20085;-82
2022/04/11 00:16:07;;;;;;;7.72;2.50;;;2.90;99.90;;;;;;4981699;28;20050;-80
2022/04/11 00:18:34;;;;;;;4.80;2.22;;;2.90;99.90;;;;;;4990617;28;20096;-81
2022/04/11 00:21:00;;;;;;;4.03;1.90;;;2.90;99.90;;;;;;5005668;28;20060;-81
2022/04/11 00:23:26;;;;;;;4.55;2.10;;;2.90;99.90;;;;;;4990739;28;20061;-80
2022/04/11 00:25:52;;;;;;;2.83;1.83;;;2.80;99.90;;;;;;4982285;28;20046;-81
2022/04/11 00:28:17;;;;;;;4.65;2.28;;;4.20;99.90;;;;;;4967236;28;20086;-80
2022/04/11 00:30:43;;;;;;;4.18;2.20;;;2.80;99.90;;;;;;4982614;28;20515;-81
2022/04/11 00:33:09;;;;;;;6.95;2.42;;;4.10;99.90;;;;;;4982602;28;20371;-79
2022/04/11 00:35:34;;;;;;;5.35;2.13;;;4.10;99.90;;;;;;4983337;28;20128;-81
2022/04/11 00:38:00;;;;;;;4.50;2.20;;;2.70;99.90;;;;;;4989207;28;20053;-81
2022/04/11 00:40:26;;;;;;;3.40;2.30;;;2.80;99.90;;;;;;4983140;28;20495;-80
2022/04/11 00:42:52;;;;;;;5.07;1.98;;;2.70;99.90;;;;;;4982589;28;20068;-81
2022/04/11 00:45:18;;;;;;;3.30;1.85;;;2.70;99.90;;;;;;4981862;28;20124;-80
2022/04/11 00:47:46;;;;;;;4.32;2.03;;;2.80;99.90;;;;;;4983282;28;20049;-80
2022/04/11 00:50:14;;;;;;;3.63;2.00;;;3.50;99.90;;;;;;4995318;28;20042;-80
2022/04/11 00:52:48;;;;;;;3.25;2.30;;;2.90;99.90;;;;;;4999142;28;20131;-81
2022/04/11 00:55:15;;;;;;;3.40;1.80;;;2.50;99.90;;;;;;4981580;28;20515;-80
2022/04/11 00:57:41;;;;;;;4.78;2.00;;;2.50;99.90;;;;;;4983233;28;20049;-80
2022/04/11 01:00:08;;;;;;;3.78;2.20;;;2.60;99.90;;;;;;4980833;28;20522;-81
2022/04/11 01:02:34;;;;;;;4.75;2.17;;;2.50;99.90;;;;;;4966788;28;20065;-81
2022/04/11 01:05:00;;;;;;;4.28;1.88;;;3.00;99.90;;;;;;4982251;28;20115;-81
2022/04/11 01:07:26;;;;;;;4.90;2.35;;;3.60;99.90;;;;;;4982118;28;20050;-80
2022/04/11 01:09:53;;;;;;;3.17;1.88;;;2.30;99.90;;;;;;4998706;28;20625;-82
2022/04/11 01:12:20;;;;;;;4.35;2.10;;;2.30;99.90;;;;;;4966540;28;20553;-82
2022/04/11 01:14:46;;;;;;;4.07;2.20;;;2.20;99.90;;;;;;4973801;28;20074;-81
2022/04/11 01:17:11;;;;;;;5.25;2.55;;;2.20;99.90;;;;;;4965153;28;20081;-81
2022/04/11 01:19:39;;;;;;;2.95;1.90;;;2.20;99.90;;;;;;4950177;28;20042;-82
2022/04/11 01:22:05;;;;;;;3.22;2.30;;;2.50;99.90;;;;;;4982305;28;20050;-82
2022/04/11 01:24:32;;;;;;;4.53;2.25;;;2.10;99.90;;;;;;4982505;28;20566;-81
2022/04/11 01:26:58;;;;;;;4.03;2.15;;;2.10;99.90;;;;;;4965012;28;20053;-81
2022/04/11 01:29:24;;;;;;;3.28;2.10;;;2.10;99.90;;;;;;4982287;28;20050;-81
2022/04/11 01:31:50;;;;;;;5.25;2.63;;;2.10;99.90;;;;;;4997649;28;20562;-81
2022/04/11 01:34:16;;;;;;;6.32;2.33;;;3.50;99.90;;;;;;4996456;28;20120;-81
2022/04/11 01:36:42;;;;;;;4.30;2.40;;;2.70;99.90;;;;;;4980710;28;20120;-81
2022/04/11 01:39:08;;;;;;;6.63;2.30;;;2.10;99.90;;;;;;4977745;28;20061;-82
2022/04/11 01:41:34;;;;;;;7.65;2.20;;;2.10;99.90;;;;;;4979794;28;20120;-81
2022/04/11 01:44:00;;;;;;;4.53;2.42;;;3.50;99.90;;;;;;4980542;28;20042;-81
2022/04/11 01:46:25;;;;;;;4.75;2.35;;;2.10;99.90;;;;;;4964772;28;20053;-80
2022/04/11 01:48:51;;;;;;;3.25;2.40;;;2.10;99.90;;;;;;4978953;28;20061;-80
2022/04/11 01:51:18;;;;;;;3.50;2.25;;;2.10;99.90;;;;;;4988603;28;20117;-81
2022/04/11 01:53:43;;;;;;;5.78;2.42;;;2.50;99.90;;;;;;4965626;28;20076;-81
2022/04/11 01:56:09;;;;;;;4.03;2.17;;;2.10;99.90;;;;;;4981962;28;20042;-81
2022/04/11 01:58:35;;;;;;;4.38;2.47;;;2.50;99.90;;;;;;4978724;28;20062;-82
2022/04/11 02:01:01;;;;;;;3.90;2.00;;;1.40;99.90;;;;;;4998938;28;20089;-81
2022/04/11 02:03:27;;;;;;;3.67;2.20;;;2.10;99.90;;;;;;4965528;28;20050;-81
2022/04/11 02:05:54;;;;;;;4.05;2.25;;;2.10;99.90;;;;;;4986461;28;20517;-81
2022/04/11 02:08:20;;;;;;;5.55;2.40;;;3.50;99.90;;;;;;4984295;28;20053;-81
2022/04/11 02:10:46;;;;;;;4.10;2.40;;;3.70;99.90;;;;;;4985469;28;20046;-81
2022/04/11 02:13:12;;;;;;;4.22;2.25;;;2.10;99.90;;;;;;4983386;28;20096;-81
2022/04/11 02:15:38;;;;;;;4.30;2.10;;;3.30;99.90;;;;;;4985778;28;20050;-81
2022/04/11 02:18:04;;;;;;;4.43;2.38;;;2.10;99.90;;;;;;4983096;28;20120;-80
2022/04/11 02:20:34;;;;;;;3.80;2.10;;;2.10;99.90;;;;;;4970810;28;20046;-81
2022/04/11 02:23:00;;;;;;;4.53;2.15;;;2.10;99.90;;;;;;4993909;28;20133;-81
2022/04/11 02:25:30;;;;;;;5.70;2.22;;;2.40;99.90;;;;;;4968999;28;20186;-82
2022/04/11 02:27:59;;;;;;;3.70;2.53;;;3.00;99.90;;;;;;4986033;28;20065;-80
2022/04/11 02:30:26;;;;;;;4.93;2.45;;;2.10;99.90;;;;;;5001705;28;20081;-82
2022/04/11 02:32:54;;;;;;;6.43;2.30;;;2.20;99.90;;;;;;4986348;28;20050;-81
2022/04/11 02:35:21;;;;;;;5.55;2.80;;;2.00;99.90;;;;;;4986268;28;20085;-81
2022/04/11 02:37:46;;;;;;;3.55;2.47;;;2.00;99.90;;;;;;4991326;28;20050;-82
2022/04/11 02:40:14;;;;;;;4.88;2.35;;;2.00;99.90;;;;;;4983049;28;20137;-81
2022/04/11 02:42:42;;;;;;;6.55;2.35;;;3.00;99.90;;;;;;4992810;28;20057;-81
2022/04/11 02:45:11;;;;;;;4.78;2.67;;;2.00;99.90;;;;;;5015903;28;20121;-80
2022/04/11 02:47:38;;;;;;;6.00;3.05;;;2.00;99.90;;;;;;4967298;28;20504;-81
2022/04/11 02:50:04;;;;;;;4.88;2.50;;;2.00;99.90;;;;;;4967648;28;20509;-82
2022/04/11 02:52:29;;;;;;;4.07;2.75;;;1.90;99.90;;;;;;4985015;28;20049;-81
2022/04/11 02:54:56;;;;;;;6.25;3.40;;;2.00;99.90;;;;;;4952399;28;20045;-81
2022/04/11 02:57:23;;;;;;;4.43;2.60;;;2.00;99.90;;;;;;4999705;28;20069;-80
2022/04/11 02:59:49;;;;;;;4.57;2.58;;;2.00;99.90;;;;;;4999717;28;20090;-81
2022/04/11 03:02:15;;;;;;;7.43;2.72;;;2.00;99.90;;;;;;5000471;28;20483;-81
2022/04/11 03:04:41;;;;;;;4.15;2.63;;;2.00;99.90;;;;;;5000082;28;20050;-81
2022/04/11 03:07:07;;;;;;;5.03;3.40;;;2.70;99.90;;;;;;4983126;28;20578;-81
2022/04/11 03:09:33;;;;;;;4.72;2.80;;;2.00;99.90;;;;;;4967320;28;20051;-81
2022/04/11 03:11:58;;;;;;;4.57;2.63;;;2.10;99.90;;;;;;5001457;28;20052;-81
2022/04/11 03:14:24;;;;;;;4.68;2.80;;;2.10;99.90;;;;;;4999203;28;20065;-82
2022/04/11 03:16:50;;;;;;;7.22;3.38;;;3.10;99.90;;;;;;4967374;28;20058;-81
2022/04/11 03:19:16;;;;;;;6.00;3.08;;;3.80;99.90;;;;;;4983931;28;20495;-81
2022/04/11 03:21:42;;;;;;;6.20;2.90;;;2.60;99.90;;;;;;4950707;28;20094;-81
2022/04/11 03:24:08;;;;;;;4.70;3.00;;;2.30;99.90;;;;;;4983633;28;20128;-81
2022/04/11 03:26:34;;;;;;;4.43;2.90;;;2.30;99.90;;;;;;4968391;28;20046;-81
2022/04/11 03:28:59;;;;;;;5.03;2.75;;;2.30;99.90;;;;;;4967531;28;20645;-81
2022/04/11 03:31:25;;;;;;;4.85;2.88;;;3.00;99.90;;;;;;5000043;28;20197;-82
2022/04/11 03:33:51;;;;;;;4.68;3.42;;;3.60;99.90;;;;;;5000726;28;20462;-81
2022/04/11 03:36:17;;;;;;;6.78;3.13;;;2.40;99.90;;;;;;4999641;28;20053;-81
2022/04/11 03:38:43;;;;;;;6.65;3.53;;;2.40;99.90;;;;;;4984883;28;20041;-82
2022/04/11 03:41:08;;;;;;;5.70;3.40;;;2.50;99.90;;;;;;4983409;28;20085;-82
2022/04/11 03:43:34;;;;;;;5.10;3.50;;;2.50;99.90;;;;;;4985334;28;20136;-81
2022/04/11 03:46:00;;;;;;;5.90;3.70;;;2.50;99.90;;;;;;4984419;28;20054;-81
2022/04/11 03:48:25;;;;;;;5.80;3.80;;;3.30;99.90;;;;;;4966126;28;20112;-81
2022/04/11 03:50:51;;;;;;;8.23;3.22;;;2.60;99.90;;;;;;4999157;28;20068;-82
2022/04/11 03:53:17;;;;;;;4.85;3.38;;;4.10;99.90;;;;;;4982789;28;20046;-82
2022/04/11 03:55:43;;;;;;;6.40;3.40;;;2.60;99.90;;;;;;5000566;28;20046;-80
2022/04/11 03:58:09;;;;;;;4.80;3.70;;;2.60;99.90;;;;;;4983652;28;20125;-82
2022/04/11 04:00:35;;;;;;;6.68;4.20;;;2.70;99.90;;;;;;4999784;28;20046;-82
2022/04/11 04:03:08;;;;;;;6.40;3.78;;;3.30;99.90;;;;;;4998813;28;20042;-81
2022/04/11 04:05:40;;;;;;;6.10;3.50;;;2.70;99.90;;;;;;4989748;28;20046;-82
2022/04/11 04:08:06;;;;;;;4.80;3.60;;;2.70;99.90;;;;;;4982371;28;20049;-81
2022/04/11 04:10:32;;;;;;;4.80;3.40;;;2.70;99.90;;;;;;4982981;28;20061;-82
2022/04/11 04:12:59;;;;;;;4.97;3.40;;;3.90;99.90;;;;;;4968363;28;20104;-82
2022/04/11 04:15:24;;;;;;;4.40;3.40;;;2.80;99.90;;;;;;4984033;28;20484;-81
2022/04/11 04:17:54;;;;;;;4.93;3.20;;;2.80;99.90;;;;;;4982826;28;20064;-81
2022/04/11 04:20:19;;;;;;;6.60;3.05;;;4.00;99.90;;;;;;4983428;28;20046;-81
2022/04/11 04:22:45;;;;;;;3.97;3.03;;;4.50;99.90;;;;;;4984378;28;20050;-81
2022/04/11 04:25:11;;;;;;;5.07;2.90;;;2.80;99.90;;;;;;4983194;28;20629;-81
2022/04/11 04:27:37;;;;;;;5.43;3.00;;;4.10;99.90;;;;;;4998966;28;20054;-82
2022/04/11 04:30:05;;;;;;;4.60;3.00;;;2.80;99.90;;;;;;4980866;28;20052;-81
2022/04/11 04:32:30;;;;;;;3.75;2.72;;;2.90;99.90;;;;;;4998216;28;20300;-81
2022/04/11 04:34:56;;;;;;;4.70;2.78;;;2.90;99.90;;;;;;4967769;28;20137;-81
2022/04/11 04:37:22;;;;;;;5.30;3.30;;;2.90;99.90;;;;;;4974842;28;20141;-81
2022/04/11 04:39:47;;;;;;;3.00;2.30;;;2.90;99.90;;;;;;4983316;28;20100;-81
2022/04/11 04:42:21;;;;;;;4.57;3.15;;;4.10;99.90;;;;;;4983412;28;20046;-81
2022/04/11 04:44:46;;;;;;;5.03;2.97;;;2.90;99.90;;;;;;5000425;28;20043;-81
2022/04/11 04:47:12;;;;;;;4.43;2.42;;;4.20;99.90;;;;;;4984069;28;20053;-81
2022/04/11 04:49:38;;;;;;;3.97;2.50;;;2.90;99.90;;;;;;4980956;28;20158;-81
2022/04/11 04:52:04;;;;;;;4.35;2.92;;;2.90;99.90;;;;;;4997526;28;20104;-80
2022/04/11 04:54:30;;;;;;;5.53;2.75;;;2.90;99.90;;;;;;4997056;28;20125;-81
2022/04/11 04:56:55;;;;;;;7.13;2.70;;;4.20;99.90;;;;;;4980988;28;20208;-81
2022/04/11 04:59:21;;;;;;;3.92;2.72;;;2.90;99.90;;;;;;4966091;28;20058;-81
2022/04/11 05:01:47;;;;;;;3.60;2.53;;;3.70;99.90;;;;;;4998235;28;20740;-81
2022/04/11 05:04:13;;;;;;;4.80;2.53;;;2.90;99.90;;;;;;4965766;28;20077;-81
2022/04/11 05:06:38;;;;;;;6.90;2.60;;;2.90;99.90;;;;;;4981334;28;20766;-82
2022/04/11 05:09:04;;;;;;;4.28;2.80;;;3.00;99.90;;;;;;4981669;28;20503;-81
2022/04/11 05:11:30;;;;;;;4.72;3.10;;;3.00;99.90;;;;;;4980644;28;20046;-81
2022/04/11 05:13:56;;;;;;;8.68;3.17;;;3.00;99.90;;;;;;4997872;28;20128;-82
2022/04/11 05:16:21;;;;;;;6.50;3.05;;;3.10;99.90;;;;;;4979310;28;20116;-81
2022/04/11 05:18:47;;;;;;;5.78;3.25;;;3.10;99.90;;;;;;4965666;28;20046;-81
2022/04/11 05:21:13;;;;;;;5.25;3.45;;;3.30;99.90;;;;;;4964773;28;20050;-81
2022/04/11 05:23:39;;;;;;;5.38;3.55;;;3.10;99.90;;;;;;4997180;28;20042;-82
2022/04/11 05:26:05;;;;;;;6.15;3.15;;;3.10;99.90;;;;;;4979018;28;20053;-81
2022/04/11 05:28:32;;;;;;;5.80;3.33;;;3.10;99.90;;;;;;4981741;28;20301;-81
2022/04/11 05:30:58;;;;;;;5.05;3.13;;;3.20;99.90;;;;;;4988905;28;20050;-82
2022/04/11 05:33:28;;;;;;;5.75;3.45;;;3.20;99.90;;;;;;4964210;28;20400;-80
2022/04/11 05:35:56;;;;;;;4.90;3.30;;;3.20;99.90;;;;;;4982452;28;20041;-80
2022/04/11 05:38:23;;;;;;;7.80;3.50;;;3.10;99.90;;;;;;4979875;28;20085;-80
2022/04/11 05:40:49;;;;;;;7.18;2.90;;;3.20;99.90;;;;;;4980016;28;20069;-80
2022/04/11 05:43:15;;;;;;;5.18;3.47;;;3.90;99.90;;;;;;4996660;28;20050;-80
2022/04/11 05:45:42;;;;;;;5.00;2.90;;;3.30;99.90;;;;;;4965432;28;20096;-80
2022/04/11 05:48:08;;;;;;;8.18;3.60;;;3.30;99.90;;;;;;4996828;28;20042;-80
2022/04/11 05:50:34;;;;;;;6.97;3.63;;;3.40;99.90;;;;;;4964771;28;20574;-80
2022/04/11 05:53:01;;;;;;;5.25;3.15;;;3.40;99.90;;;;;;4984380;28;20100;-80
2022/04/11 05:55:28;;;;;;;5.47;3.20;;;3.60;99.90;;;;;;4996334;28;20549;-79
2022/04/11 05:57:54;;;;;;;4.95;3.33;;;3.50;99.90;;;;;;4981627;28;20533;-80
2022/04/11 06:00:20;;;;;;;4.88;2.90;;;3.60;99.90;;;;;;4979211;28;20085;-79
2022/04/11 06:02:47;;;;;;;4.25;3.38;;;3.60;99.90;;;;;;4964567;28;20050;-80
2022/04/11 06:05:14;;;;;;;5.28;2.90;;;3.70;99.90;;;;;;4981484;28;20073;-80
2022/04/11 06:07:41;;;;;;;5.05;3.20;;;3.70;99.90;;;;;;4995241;28;20050;-80
2022/04/11 06:10:08;;;;;;;4.80;3.10;;;3.80;99.90;;;;;;5004945;28;20047;-80
2022/04/11 06:12:37;;;;;;;4.88;2.95;;;3.90;99.90;;;;;;4996268;28;20061;-80
2022/04/11 06:15:03;;;;;;;5.43;2.88;;;3.90;99.90;;;;;;4997271;28;20057;-80
2022/04/11 06:17:29;;;;;;;6.18;3.15;;;4.00;99.90;;;;;;4997086;28;20058;-80
2022/04/11 06:19:57;;;;;;;4.82;3.00;;;5.10;99.90;;;;;;4964174;28;20899;-80
2022/04/11 06:22:23;;;;;;;6.82;3.03;;;4.20;99.90;;;;;;4994716;28;20042;-80
2022/04/11 06:24:50;;;;;;;5.28;3.05;;;4.30;99.90;;;;;;4978611;28;20057;-80
2022/04/11 06:27:17;;;;;;;6.15;3.35;;;4.90;99.90;;;;;;4965222;28;20053;-81
2022/04/11 06:29:44;;;;;;;4.97;2.83;;;4.40;99.90;;;;;;4980813;28;20045;-80
2022/04/11 06:32:10;;;;;;;5.50;3.28;;;4.50;99.90;;;;;;4996585;28;20061;-79
2022/04/11 06:34:37;;;;;;;6.13;3.08;;;4.50;99.90;;;;;;4980630;28;20439;-80
2022/04/11 06:37:04;;;;;;;5.45;2.90;;;4.60;99.90;;;;;;4981017;28;20042;-79
2022/04/11 06:39:30;;;;;;;4.65;2.80;;;4.70;99.90;;;;;;4995571;28;20050;-79
2022/04/11 06:41:56;;;;;;;6.45;3.10;;;4.80;99.90;;;;;;4980185;28;20062;-80
2022/04/11 06:44:22;;;;;;;4.85;3.15;;;4.90;99.90;;;;;;4978225;28;20042;-80
2022/04/11 06:46:48;;;;;;;7.97;3.30;;;5.00;99.90;;;;;;4980769;28;20049;-82
2022/04/11 06:49:14;;;;;;;4.85;3.00;;;5.00;99.90;;;;;;4965426;28;20132;-82
2022/04/11 06:51:41;;;;;;;4.40;3.30;;;5.20;99.90;;;;;;4999120;28;20050;-83
2022/04/11 06:54:07;;;;;;;6.25;3.25;;;5.10;99.90;;;;;;4968207;28;20046;-81
2022/04/11 06:56:33;;;;;;;4.72;2.88;;;5.20;99.90;;;;;;4967701;28;20054;-79
2022/04/11 06:59:01;;;;;;;4.80;3.03;;;5.30;99.90;;;;;;4982741;28;20038;-85
2022/04/11 07:01:27;;;;;;;8.32;3.08;;;5.30;99.90;;;;;;4975579;28;20125;-80
2022/04/11 07:03:52;;;;;;;4.68;2.80;;;5.40;99.90;;;;;;4968182;28;20125;-80
2022/04/11 07:06:18;;;;;;;6.00;3.10;;;5.50;99.90;;;;;;4983232;28;20140;-80
2022/04/11 07:08:44;;;;;;;8.15;3.17;;;5.60;99.90;;;;;;4967383;28;20049;-80
2022/04/11 07:11:10;;;;;;;5.22;3.20;;;5.80;99.90;;;;;;4967528;28;20054;-80
2022/04/11 07:13:36;;;;;;;8.48;3.33;;;5.90;99.90;;;;;;4983968;28;20046;-79
2022/04/11 07:16:02;;;;;;;6.53;3.05;;;6.40;99.90;;;;;;4984548;28;20165;-82
2022/04/11 07:18:28;;;;;;;4.93;2.70;;;6.10;99.90;;;;;;4967016;28;20082;-79
2022/04/11 07:20:54;;;;;;;4.43;2.83;;;6.20;99.90;;;;;;4968197;28;20148;-79
2022/04/11 07:23:21;;;;;;;5.57;3.33;;;6.70;99.90;;;;;;4982880;28;20057;-80
2022/04/11 07:25:47;;;;;;;3.92;2.67;;;6.40;99.90;;;;;;4983351;28;20452;-80
2022/04/11 07:28:14;;;;;;;5.22;3.13;;;6.60;99.90;;;;;;4989873;28;20054;-81
2022/04/11 07:30:40;;;;;;;3.75;2.67;;;6.70;99.90;;;;;;4982699;28;20111;-79
2022/04/11 07:33:07;;;;;;;8.00;2.90;;;6.70;99.90;;;;;;4989986;28;20050;-79
2022/04/11 07:35:33;;;;;;;5.85;3.03;;;7.00;99.90;;;;;;4999399;28;20058;-79
2022/04/11 07:38:00;;;;;;;5.78;2.83;;;7.10;99.90;;;;;;4981258;28;20049;-81
2022/04/11 07:40:27;;;;;;;4.07;2.80;;;7.20;99.90;;;;;;4984099;28;20073;-81
2022/04/11 07:42:53;;;;;;;4.95;2.78;;;7.40;99.90;;;;;;4982514;28;20054;-78
2022/04/11 07:45:20;;;;;;;4.32;2.60;;;8.60;99.90;;;;;;4983381;28;20061;-78
2022/04/11 07:47:46;;;;;;;3.55;2.25;;;7.70;99.90;;;;;;4996831;28;20057;-78
2022/04/11 07:50:12;;;;;;;6.32;2.90;;;7.80;99.90;;;;;;4998428;28;20141;-79
2022/04/11 07:52:39;;;;;;;4.78;2.72;;;8.00;99.90;;;;;;4966665;28;20050;-78
2022/04/11 07:55:06;;;;;;;5.13;2.53;;;8.10;99.90;;;;;;4998202;28;20197;-80
2022/04/11 07:57:32;;;;;;;4.60;2.60;;;8.30;99.90;;;;;;4982163;28;20129;-78
2022/04/11 07:59:58;;;;;;;6.35;2.65;;;8.50;99.90;;;;;;4973506;28;20189;-78
2022/04/11 08:02:25;;;;;;;4.35;2.50;;;8.60;99.90;;;;;;4982196;28;20391;-79
2022/04/11 08:04:51;;;;;;;4.13;2.30;;;8.80;99.90;;;;;;4990036;28;20053;-80
2022/04/11 08:07:17;;;;;;;4.70;2.17;;;9.00;99.90;;;;;;4997627;28;20053;-81
2022/04/11 08:09:43;;;;;;;5.38;2.30;;;9.20;99.90;;;;;;4998518;28;20042;-81
2022/04/11 08:12:09;;;;;;;5.57;2.55;;;9.40;99.90;;;;;;4965741;28;20100;-81
2022/04/11 08:14:35;;;;;;;3.90;2.28;;;9.60;99.90;;;;;;4966276;28;20143;-81
2022/04/11 08:17:03;;;;;;;3.55;2.30;;;9.80;99.90;;;;;;4980946;28;20485;-81
2022/04/11 08:19:30;;;;;;;5.75;2.63;;;10.10;99.90;;;;;;4981795;28;20042;-80
2022/04/11 08:21:56;;;;;;;3.22;2.03;;;10.40;99.90;;;;;;4990323;28;20058;-80
2022/04/11 08:24:22;;;;;;;5.50;2.10;;;10.60;99.90;;;;;;4980958;28;20407;-80
2022/04/11 08:26:47;;;;;;;4.07;1.90;;;11.00;99.90;;;;;;4980852;28;20061;-81
2022/04/11 08:29:13;;;;;;;3.13;1.80;;;11.30;99.90;;;;;;4980845;28;20447;-79
2022/04/11 08:31:39;;;;;;;3.38;1.90;;;11.50;99.90;;;;;;4981454;28;20050;-79
2022/04/11 08:34:05;;;;;;;2.80;1.77;;;11.80;99.90;;;;;;5000582;28;20042;-78
2022/04/11 08:36:31;;;;;;;3.55;1.60;;;12.00;99.90;;;;;;4981926;28;20054;-78
2022/04/11 08:38:57;;;;;;;4.07;1.52;;;12.30;99.90;;;;;;4979971;28;20049;-79
2022/04/11 08:41:26;;;;;;;3.35;1.55;;;12.70;99.90;;;;;;4964155;28;20061;-78
2022/04/11 08:43:54;;;;;;;3.03;1.48;;;13.10;99.90;;;;;;4996388;28;20047;-79
2022/04/11 08:46:21;;;;;;;2.47;1.25;;;13.30;99.90;;;;;;4977716;28;20569;-79
2022/04/11 08:48:46;;;;;;;4.88;1.42;;;13.60;99.90;;;;;;4980676;28;20060;-78
2022/04/11 08:51:13;;;;;;;4.03;1.30;;;13.80;99.90;;;;;;4981509;28;20046;-79
2022/04/11 08:53:39;;;;;;;3.60;1.30;;;14.10;99.90;;;;;;4978755;28;20042;-79
2022/04/11 08:56:04;;;;;;;3.45;1.80;;;14.40;99.90;;;;;;4979567;28;20040;-79
2022/04/11 08:58:30;;;;;;;2.50;1.23;;;14.50;99.90;;;;;;4996554;28;20054;-80
2022/04/11 09:00:56;;;;;;;2.17;1.10;;;14.60;99.90;;;;;;4965149;28;20061;-79
2022/04/11 09:03:21;;;;;;;2.28;1.10;;;14.80;99.90;;;;;;4964286;28;20389;-79
2022/04/11 09:06:09;;;;;;;2.42;1.13;;;14.90;99.90;;;;;;4965081;28;20053;-78
2022/04/11 09:08:58;;;;;;;3.45;1.30;;;15.20;98.70;;;;;;4988567;28;20060;-79
2022/04/11 09:11:37;;;;;;;2.03;1.27;;;15.40;97.60;;;;;;4998197;28;20054;-79
2022/04/11 09:14:06;;;;;;;3.13;1.13;;;15.60;99.50;;;;;;4996553;28;20514;-80
2022/04/11 09:16:51;;;;;;;1.80;1.10;;;15.90;99.50;;;;;;4995897;28;20053;-80
2022/04/11 09:19:20;;;;;;;3.50;1.30;;;16.10;95.50;;;;;;4981871;28;20049;-80
2022/04/11 09:21:46;;;;;;;3.33;1.33;;;16.20;94.40;;;;;;4986758;28;20424;-80
2022/04/11 09:24:17;;;;;;;4.05;1.52;;;16.20;96.40;;;;;;4982004;28;20049;-79
2022/04/11 09:26:43;;;;;;;2.70;1.33;;;16.30;95.50;;;;;;4980625;28;20058;-79
2022/04/11 09:29:09;;;;;;;3.50;1.20;;;16.50;95.80;;;;;;4980425;28;20538;-80
2022/04/11 09:31:34;;;;;;;2.25;1.05;;;16.60;94.70;;;;;;4998032;28;20046;-79
2022/04/11 09:34:18;;;;;;;2.63;1.42;;;16.70;93.70;;;;;;4982247;28;20080;-80
2022/04/11 09:36:52;;;;;;;1.88;1.13;;;16.90;87.40;;;;;;4994952;28;20136;-80
2022/04/11 09:39:32;;;;;;;3.47;1.30;;;17.00;92.00;;;;;;4988670;28;20054;-79
2022/04/11 09:41:59;;;;;;;4.25;1.40;;;17.20;90.40;;;;;;4995372;28;20076;-80
2022/04/11 09:44:30;;;;;;;2.90;1.40;;;17.30;90.40;;;;;;4978757;28;20104;-79
2022/04/11 09:47:04;;;;;;;3.30;1.30;;;17.50;87.50;;;;;;4980749;28;20163;-80
2022/04/11 09:49:31;;;;;;;3.17;1.40;;;17.60;83.20;;;;;;4995059;28;20072;-78
2022/04/11 09:52:13;;;;;;;3.25;1.30;;;17.70;85.00;;;;;;4981863;28;20057;-79
2022/04/11 09:54:42;;;;;;;3.80;1.45;;;17.90;81.10;;;;;;4996700;28;20085;-80
2022/04/11 09:57:09;;;;;;;4.35;1.45;;;18.00;79.50;;;;;;4996946;28;20073;-80
2022/04/11 09:59:39;;;;;;;2.03;1.38;;;18.00;77.50;;;;;;5011444;28;20057;-80
2022/04/11 10:02:06;;;;;;;2.33;1.50;;;17.80;75.80;;;;;;4978933;28;20050;-80
2022/04/11 10:04:34;;;;;;;3.33;1.40;;;17.90;78.00;;;;;;4996779;28;20050;-79
2022/04/11 10:07:04;;;;;;;2.47;1.52;;;18.00;75.60;;;;;;4995167;28;20133;-80
2022/04/11 10:09:30;;;;;;;3.50;1.48;;;18.20;74.20;;;;;;4972602;28;20758;-80
2022/04/11 10:11:56;;;;;;;4.30;1.63;;;18.40;74.30;;;;;;4980428;28;20050;-80
2022/04/11 10:14:23;;;;;;;2.47;1.45;;;18.40;73.70;;;;;;4980320;28;20053;-80
2022/04/11 10:16:52;;;;;;;2.67;1.52;;;18.30;71.40;;;;;;4981028;28;20431;-79
2022/04/11 10:19:27;;;;;;;3.28;1.58;;;18.20;68.10;;;;;;5012512;28;20041;-80
2022/04/11 10:21:57;;;;;;;2.70;1.27;;;18.00;69.00;;;;;;5012448;28;20068;-79
2022/04/11 10:24:57;;;;;;;3.53;1.80;;;18.10;71.00;;;;;;4989523;28;20491;-79
2022/04/11 10:27:29;;;;;;;3.13;1.73;;;18.00;67.90;;;;;;4984680;28;20052;-80
2022/04/11 10:29:56;;;;;;;3.17;1.50;;;18.10;70.70;;;;;;4983630;28;20101;-80
2022/04/11 10:32:24;;;;;;;4.18;2.30;;;18.40;69.70;;;;;;4992894;28;20157;-80
2022/04/11 10:34:58;;;;;;;4.05;2.20;;;18.10;64.70;;;;;;4998208;28;20050;-81
2022/04/11 10:37:29;;;;;;;3.80;1.95;;;18.20;64.10;;;;;;4983035;28;20100;-80
2022/04/11 10:40:17;;;;;;;3.80;2.50;;;18.40;66.40;;;;;;4981449;28;20507;-80
2022/04/11 10:43:09;;;;;;;4.32;2.30;;;18.40;63.70;;;;;;4978654;28;20231;-80
2022/04/11 10:45:41;;;;;;;4.28;2.30;;;18.40;64.00;;;;;;4998422;28;20066;-81
2022/04/11 10:48:12;;;;;;;4.40;2.40;;;18.10;62.70;;;;;;4965451;28;20053;-81
2022/04/11 10:50:43;;;;;;;4.90;2.42;;;18.20;59.20;;;;;;4980925;28;20061;-81
2022/04/11 10:53:22;;;;;;;4.78;2.17;;;18.00;61.00;;;;;;4961644;28;20049;-81
2022/04/11 10:55:55;;;;;;;4.85;2.15;;;18.30;61.80;;;;;;4981403;28;20053;-80
2022/04/11 10:58:24;;;;;;;4.53;2.45;;;18.70;63.90;;;;;;4996012;28;20054;-80
2022/04/11 11:00:51;;;;;;;4.88;2.20;;;19.00;62.70;;;;;;4980160;28;20050;-80
2022/04/11 11:03:17;;;;;;;2.90;2.00;;;19.40;63.00;;;;;;4987639;28;20054;-80
2022/04/11 11:05:48;;;;;;;3.92;2.30;;;19.70;62.20;;;;;;4996021;28;20570;-80
2022/04/11 11:08:25;;;;;;;3.65;2.33;;;19.90;60.80;;;;;;4982336;28;20411;-80
2022/04/11 11:10:54;;;;;;;7.93;3.40;;;20.10;59.50;;;;;;4983049;28;20054;-81
2022/04/11 11:13:38;;;;;;;4.75;2.90;;;20.30;60.10;;;;;;4997478;28;20050;-81
2022/04/11 11:16:28;;;;;;;3.92;2.60;;;20.30;55.10;;;;;;4997278;28;20049;-81
2022/04/11 11:18:54;;;;;;;5.22;2.92;;;20.50;59.10;;;;;;4993153;28;20050;-81
2022/04/11 11:21:31;;;;;;;4.45;2.50;;;20.40;59.10;;;;;;4985510;28;20045;-80
2022/04/11 11:24:12;;;;;;;6.63;4.35;;;20.40;59.30;;;;;;4996362;28;20887;-81
2022/04/11 11:26:54;;;;;;;6.32;4.35;;;20.50;55.10;;;;;;4994879;28;20634;-81
2022/04/11 11:29:28;;;;;;;5.13;3.85;;;20.40;56.50;;;;;;4980864;28;20138;-80
2022/04/11 11:31:59;;;;;;;5.50;3.65;;;20.40;54.00;;;;;;4982622;28;20065;-80
2022/04/11 11:34:27;;;;;;;6.53;4.03;;;20.50;56.80;;;;;;4982772;28;20046;-80
2022/04/11 11:36:58;;;;;;;6.60;3.90;;;20.10;56.00;;;;;;4993895;28;20050;-80
2022/04/11 11:39:25;;;;;;;5.47;4.07;;;20.30;56.50;;;;;;4979813;28;20545;-80
2022/04/11 11:41:53;;;;;;;5.32;3.95;;;20.20;56.60;;;;;;4977342;28;20046;-80
2022/04/11 11:44:19;;;;;;;5.88;4.95;;;19.90;56.40;;;;;;4964081;28;20487;-81
2022/04/11 11:46:51;;;;;;;6.13;4.68;;;19.60;56.20;;;;;;4980819;28;20052;-80
2022/04/11 11:49:21;;;;;;;7.20;4.57;;;19.30;56.20;;;;;;4981952;28;20045;-80
2022/04/11 11:51:47;;;;;;;7.00;4.50;;;19.50;56.20;;;;;;4982506;28;20050;-81
2022/04/11 11:54:14;;;;;;;7.35;5.07;;;19.90;57.50;;;;;;4996781;28;20069;-79
2022/04/11 11:56:41;;;;;;;5.25;4.40;;;20.30;57.60;;;;;;4980738;28;20064;-80
2022/04/11 11:59:07;;;;;;;7.63;4.82;;;20.40;55.90;;;;;;5002768;28;20050;-80
2022/04/11 12:01:33;;;;;;;7.82;4.80;;;20.30;55.60;;;;;;4960388;28;20061;-82
2022/04/11 12:06:43;;;;;;;6.72;5.00;;;20.40;57.30;;;;;;4979076;28;20516;-80
2022/04/11 12:09:09;;;;;;;6.65;4.68;;;20.60;57.10;;;;;;4977273;28;20042;-80
2022/04/11 12:11:35;;;;;;;6.10;4.50;;;20.90;55.50;;;;;;4993534;28;20046;-79
2022/04/11 12:14:08;;;;;;;6.18;5.00;;;21.00;54.20;;;;;;4993821;28;20056;-79
2022/04/11 12:16:36;;;;;;;5.30;4.55;;;21.30;55.00;;;;;;4979113;28;20075;-79
2022/04/11 12:19:04;;;;;;;5.45;4.15;;;21.50;55.40;;;;;;4979847;28;20050;-80
2022/04/11 12:21:44;;;;;;;6.72;4.80;;;21.70;55.30;;;;;;4949214;28;20129;-79
2022/04/11 12:24:10;;;;;;;4.95;4.15;;;22.00;53.50;;;;;;4994440;28;20042;-80
2022/04/11 12:26:45;;;;;;;8.73;4.90;;;22.10;54.90;;;;;;4975664;28;20503;-79
2022/04/11 12:29:17;;;;;;;6.03;4.88;;;22.20;53.70;;;;;;4995216;28;20269;-80
2022/04/11 12:32:03;;;;;;;5.30;4.75;;;22.40;53.00;;;;;;4985374;28;20048;-80
2022/04/11 12:34:33;;;;;;;;;;;22.50;52.30;;;;;;4981125;28;20140;-79
2022/04/11 12:37:05;;;;;;;6.13;4.93;;;22.40;51.60;;;;;;4970690;28;19936;-79
2022/04/11 12:39:32;;;;;;;8.68;4.70;;;22.50;53.20;;;;;;4963026;28;20042;-80
2022/04/11 12:41:58;;;;;;;5.60;4.68;;;22.50;53.30;;;;;;4979722;28;20062;-80
2022/04/11 12:44:34;;;;;;;6.43;5.07;;;22.20;52.30;;;;;;4993820;28;20590;-79
2022/04/11 12:47:00;;;;;;;5.53;4.53;;;22.20;50.80;;;;;;4978696;28;20077;-79
2022/04/11 12:49:42;;;;;;;6.20;4.55;;;22.20;51.30;;;;;;4991560;28;20096;-79
2022/04/11 12:52:08;;;;;;;5.65;4.20;;;22.20;50.40;;;;;;4993430;28;20046;-79
2022/04/11 12:54:48;;;;;;;5.88;4.43;;;22.10;52.10;;;;;;4986901;28;20394;-80
2022/04/11 12:57:22;;;;;;;7.90;5.28;;;22.10;51.40;;;;;;4979601;28;20049;-79
2022/04/11 12:59:48;;;;;;;7.25;4.72;;;22.10;51.80;;;;;;4994601;28;20050;-79